sensor_id;sensor_type;location;lat;lon;timestamp;P1;durP1;ratioP1;P2;durP2;ratioP2
41219;SDS011;26951;47.338;9.196;2022-10-17T00:01:06;4.10;;;1.77;;
41219;SDS011;26951;47.338;9.196;2022-10-17T00:03:50;2.00;;;1.80;;
41219;SDS011;26951;47.338;9.196;2022-10-17T00:06:34;4.00;;;2.13;;
41219;SDS011;26951;47.338;9.196;2022-10-17T00:09:18;2.00;;;1.63;;
41219;SDS011;26951;47.338;9.196;2022-10-17T00:12:03;1.88;;;1.60;;
41219;SDS011;26951;47.338;9.196;2022-10-17T00:14:47;2.03;;;1.83;;
41219;SDS011;26951;47.338;9.196;2022-10-17T00:17:31;3.95;;;1.80;;
41219;SDS011;26951;47.338;9.196;2022-10-17T00:20:15;2.72;;;1.70;;
41219;SDS011;26951;47.338;9.196;2022-10-17T00:22:59;3.15;;;1.58;;
41219;SDS011;26951;47.338;9.196;2022-10-17T00:25:43;2.13;;;1.70;;
41219;SDS011;26951;47.338;9.196;2022-10-17T00:28:28;3.67;;;2.00;;
41219;SDS011;26951;47.338;9.196;2022-10-17T00:31:12;3.03;;;1.60;;
41219;SDS011;26951;47.338;9.196;2022-10-17T00:33:57;1.90;;;1.70;;
41219;SDS011;26951;47.338;9.196;2022-10-17T00:36:41;2.22;;;1.75;;
41219;SDS011;26951;47.338;9.196;2022-10-17T00:39:25;2.58;;;1.80;;
41219;SDS011;26951;47.338;9.196;2022-10-17T00:42:11;3.33;;;1.70;;
41219;SDS011;26951;47.338;9.196;2022-10-17T00:45:38;3.42;;;2.10;;
41219;SDS011;26951;47.338;9.196;2022-10-17T00:48:07;2.17;;;1.75;;
41219;SDS011;26951;47.338;9.196;2022-10-17T00:50:54;2.78;;;2.13;;
41219;SDS011;26951;47.338;9.196;2022-10-17T00:53:38;2.03;;;1.70;;
41219;SDS011;26951;47.338;9.196;2022-10-17T00:56:23;2.05;;;1.85;;
41219;SDS011;26951;47.338;9.196;2022-10-17T00:59:08;3.28;;;2.03;;
41219;SDS011;26951;47.338;9.196;2022-10-17T01:02:04;3.47;;;1.70;;
41219;SDS011;26951;47.338;9.196;2022-10-17T01:04:51;2.60;;;1.70;;
41219;SDS011;26951;47.338;9.196;2022-10-17T01:07:38;2.80;;;1.77;;
41219;SDS011;26951;47.338;9.196;2022-10-17T01:10:35;2.13;;;1.92;;
41219;SDS011;26951;47.338;9.196;2022-10-17T01:13:46;3.47;;;1.98;;
41219;SDS011;26951;47.338;9.196;2022-10-17T01:16:43;2.38;;;1.75;;
41219;SDS011;26951;47.338;9.196;2022-10-17T01:19:41;2.10;;;1.90;;
41219;SDS011;26951;47.338;9.196;2022-10-17T01:22:56;1.80;;;1.50;;
41219;SDS011;26951;47.338;9.196;2022-10-17T01:31:58;3.70;;;1.67;;
41219;SDS011;26951;47.338;9.196;2022-10-17T01:35:02;4.93;;;1.45;;
41219;SDS011;26951;47.338;9.196;2022-10-17T01:38:10;2.80;;;1.65;;
41219;SDS011;26951;47.338;9.196;2022-10-17T01:41:02;2.90;;;1.60;;
41219;SDS011;26951;47.338;9.196;2022-10-17T01:43:54;3.85;;;1.63;;
41219;SDS011;26951;47.338;9.196;2022-10-17T01:47:11;1.60;;;1.48;;
41219;SDS011;26951;47.338;9.196;2022-10-17T01:50:07;3.50;;;1.50;;
41219;SDS011;26951;47.338;9.196;2022-10-17T01:52:57;2.50;;;1.70;;
41219;SDS011;26951;47.338;9.196;2022-10-17T01:55:45;6.32;;;1.80;;
41219;SDS011;26951;47.338;9.196;2022-10-17T01:58:33;2.10;;;1.83;;
41219;SDS011;26951;47.338;9.196;2022-10-17T02:01:22;3.05;;;1.60;;
41219;SDS011;26951;47.338;9.196;2022-10-17T02:04:09;4.10;;;1.83;;
41219;SDS011;26951;47.338;9.196;2022-10-17T02:06:54;2.17;;;1.90;;
41219;SDS011;26951;47.338;9.196;2022-10-17T02:09:38;4.30;;;1.90;;
41219;SDS011;26951;47.338;9.196;2022-10-17T02:22:05;3.00;;;1.77;;
41219;SDS011;26951;47.338;9.196;2022-10-17T02:25:13;4.30;;;1.90;;
41219;SDS011;26951;47.338;9.196;2022-10-17T02:28:29;4.55;;;2.35;;
41219;SDS011;26951;47.338;9.196;2022-10-17T02:31:24;3.60;;;2.22;;
41219;SDS011;26951;47.338;9.196;2022-10-17T02:34:16;4.13;;;1.80;;
41219;SDS011;26951;47.338;9.196;2022-10-17T02:37:05;2.65;;;1.90;;
41219;SDS011;26951;47.338;9.196;2022-10-17T02:39:53;3.38;;;2.25;;
41219;SDS011;26951;47.338;9.196;2022-10-17T02:42:41;4.70;;;2.10;;
41219;SDS011;26951;47.338;9.196;2022-10-17T02:45:28;4.75;;;2.28;;
41219;SDS011;26951;47.338;9.196;2022-10-17T02:51:19;3.25;;;1.98;;
41219;SDS011;26951;47.338;9.196;2022-10-17T02:54:21;2.53;;;1.83;;
41219;SDS011;26951;47.338;9.196;2022-10-17T02:57:11;2.47;;;1.90;;
41219;SDS011;26951;47.338;9.196;2022-10-17T03:00:15;2.10;;;1.60;;
41219;SDS011;26951;47.338;9.196;2022-10-17T03:03:01;4.75;;;1.88;;
41219;SDS011;26951;47.338;9.196;2022-10-17T03:06:02;2.08;;;1.80;;
41219;SDS011;26951;47.338;9.196;2022-10-17T03:08:46;2.33;;;1.85;;
41219;SDS011;26951;47.338;9.196;2022-10-17T03:11:30;2.28;;;1.67;;
41219;SDS011;26951;47.338;9.196;2022-10-17T03:14:14;2.78;;;2.30;;
41219;SDS011;26951;47.338;9.196;2022-10-17T03:16:58;2.22;;;1.92;;
41219;SDS011;26951;47.338;9.196;2022-10-17T03:19:42;3.70;;;1.90;;
41219;SDS011;26951;47.338;9.196;2022-10-17T03:22:26;4.10;;;2.13;;
41219;SDS011;26951;47.338;9.196;2022-10-17T03:25:10;2.97;;;1.92;;
41219;SDS011;26951;47.338;9.196;2022-10-17T03:27:56;2.83;;;2.10;;
41219;SDS011;26951;47.338;9.196;2022-10-17T03:30:42;3.05;;;2.35;;
41219;SDS011;26951;47.338;9.196;2022-10-17T03:33:26;2.78;;;2.20;;
41219;SDS011;26951;47.338;9.196;2022-10-17T03:36:12;2.13;;;1.92;;
41219;SDS011;26951;47.338;9.196;2022-10-17T03:38:58;2.58;;;2.05;;
41219;SDS011;26951;47.338;9.196;2022-10-17T03:41:42;2.40;;;2.10;;
41219;SDS011;26951;47.338;9.196;2022-10-17T03:44:27;3.67;;;2.13;;
41219;SDS011;26951;47.338;9.196;2022-10-17T03:47:11;5.65;;;1.67;;
41219;SDS011;26951;47.338;9.196;2022-10-17T03:49:55;2.20;;;1.67;;
41219;SDS011;26951;47.338;9.196;2022-10-17T03:52:39;2.20;;;1.80;;
41219;SDS011;26951;47.338;9.196;2022-10-17T03:55:23;1.95;;;1.85;;
41219;SDS011;26951;47.338;9.196;2022-10-17T03:58:07;2.47;;;2.15;;
41219;SDS011;26951;47.338;9.196;2022-10-17T04:00:51;2.25;;;1.75;;
41219;SDS011;26951;47.338;9.196;2022-10-17T04:03:36;3.90;;;1.92;;
41219;SDS011;26951;47.338;9.196;2022-10-17T04:06:20;3.33;;;2.10;;
41219;SDS011;26951;47.338;9.196;2022-10-17T04:09:05;4.83;;;1.97;;
41219;SDS011;26951;47.338;9.196;2022-10-17T04:11:50;3.15;;;1.70;;
41219;SDS011;26951;47.338;9.196;2022-10-17T04:14:35;5.60;;;2.42;;
41219;SDS011;26951;47.338;9.196;2022-10-17T04:17:19;2.58;;;1.80;;
41219;SDS011;26951;47.338;9.196;2022-10-17T04:20:04;4.28;;;1.73;;
41219;SDS011;26951;47.338;9.196;2022-10-17T04:22:48;2.22;;;1.60;;
41219;SDS011;26951;47.338;9.196;2022-10-17T04:25:32;2.20;;;1.55;;
41219;SDS011;26951;47.338;9.196;2022-10-17T04:28:16;2.53;;;1.80;;
41219;SDS011;26951;47.338;9.196;2022-10-17T04:31:04;4.13;;;1.75;;
41219;SDS011;26951;47.338;9.196;2022-10-17T04:33:50;2.08;;;1.80;;
41219;SDS011;26951;47.338;9.196;2022-10-17T04:36:34;2.15;;;1.80;;
41219;SDS011;26951;47.338;9.196;2022-10-17T04:39:18;4.07;;;2.65;;
41219;SDS011;26951;47.338;9.196;2022-10-17T04:42:02;2.42;;;2.17;;
41219;SDS011;26951;47.338;9.196;2022-10-17T04:44:47;3.17;;;2.47;;
41219;SDS011;26951;47.338;9.196;2022-10-17T04:47:31;2.60;;;2.08;;
41219;SDS011;26951;47.338;9.196;2022-10-17T04:50:15;2.97;;;2.10;;
41219;SDS011;26951;47.338;9.196;2022-10-17T04:52:59;2.10;;;1.90;;
41219;SDS011;26951;47.338;9.196;2022-10-17T04:55:43;2.17;;;1.83;;
41219;SDS011;26951;47.338;9.196;2022-10-17T04:58:28;3.03;;;1.92;;
41219;SDS011;26951;47.338;9.196;2022-10-17T05:01:14;5.68;;;2.40;;
41219;SDS011;26951;47.338;9.196;2022-10-17T05:04:03;3.75;;;2.13;;
41219;SDS011;26951;47.338;9.196;2022-10-17T05:06:47;3.03;;;2.40;;
41219;SDS011;26951;47.338;9.196;2022-10-17T05:09:31;3.03;;;2.30;;
41219;SDS011;26951;47.338;9.196;2022-10-17T05:12:15;2.60;;;1.85;;
41219;SDS011;26951;47.338;9.196;2022-10-17T05:14:59;2.47;;;1.92;;
41219;SDS011;26951;47.338;9.196;2022-10-17T05:17:43;2.70;;;2.10;;
41219;SDS011;26951;47.338;9.196;2022-10-17T05:20:28;3.03;;;2.10;;
41219;SDS011;26951;47.338;9.196;2022-10-17T05:23:13;2.38;;;2.00;;
41219;SDS011;26951;47.338;9.196;2022-10-17T05:25:57;1.77;;;1.65;;
41219;SDS011;26951;47.338;9.196;2022-10-17T05:28:41;2.05;;;1.85;;
41219;SDS011;26951;47.338;9.196;2022-10-17T05:31:25;2.88;;;1.63;;
41219;SDS011;26951;47.338;9.196;2022-10-17T05:34:09;3.17;;;2.35;;
41219;SDS011;26951;47.338;9.196;2022-10-17T05:36:53;3.17;;;1.90;;
41219;SDS011;26951;47.338;9.196;2022-10-17T05:39:37;2.85;;;1.80;;
41219;SDS011;26951;47.338;9.196;2022-10-17T05:42:22;3.47;;;1.65;;
41219;SDS011;26951;47.338;9.196;2022-10-17T05:45:06;2.35;;;1.70;;
41219;SDS011;26951;47.338;9.196;2022-10-17T05:47:51;2.10;;;1.90;;
41219;SDS011;26951;47.338;9.196;2022-10-17T05:50:35;2.67;;;1.65;;
41219;SDS011;26951;47.338;9.196;2022-10-17T05:53:19;33.30;;;3.33;;
41219;SDS011;26951;47.338;9.196;2022-10-17T05:56:04;2.15;;;1.77;;
41219;SDS011;26951;47.338;9.196;2022-10-17T05:58:50;2.65;;;2.20;;
41219;SDS011;26951;47.338;9.196;2022-10-17T06:01:34;1.92;;;1.77;;
41219;SDS011;26951;47.338;9.196;2022-10-17T06:04:19;2.67;;;1.80;;
41219;SDS011;26951;47.338;9.196;2022-10-17T06:07:03;3.75;;;2.00;;
41219;SDS011;26951;47.338;9.196;2022-10-17T06:09:48;2.45;;;1.83;;
41219;SDS011;26951;47.338;9.196;2022-10-17T06:12:32;3.35;;;1.70;;
41219;SDS011;26951;47.338;9.196;2022-10-17T06:15:16;3.92;;;1.98;;
41219;SDS011;26951;47.338;9.196;2022-10-17T06:18:00;1.90;;;1.70;;
41219;SDS011;26951;47.338;9.196;2022-10-17T06:20:44;3.88;;;1.65;;
41219;SDS011;26951;47.338;9.196;2022-10-17T06:23:29;3.95;;;1.73;;
41219;SDS011;26951;47.338;9.196;2022-10-17T06:26:13;4.13;;;2.20;;
41219;SDS011;26951;47.338;9.196;2022-10-17T06:28:57;2.88;;;2.00;;
41219;SDS011;26951;47.338;9.196;2022-10-17T06:31:41;2.80;;;1.90;;
41219;SDS011;26951;47.338;9.196;2022-10-17T06:34:26;2.78;;;2.00;;
41219;SDS011;26951;47.338;9.196;2022-10-17T06:37:10;4.20;;;1.80;;
41219;SDS011;26951;47.338;9.196;2022-10-17T06:39:54;3.55;;;1.88;;
41219;SDS011;26951;47.338;9.196;2022-10-17T06:42:38;3.13;;;1.88;;
41219;SDS011;26951;47.338;9.196;2022-10-17T06:45:23;3.88;;;1.92;;
41219;SDS011;26951;47.338;9.196;2022-10-17T06:48:07;3.17;;;1.70;;
41219;SDS011;26951;47.338;9.196;2022-10-17T06:50:51;2.90;;;1.50;;
41219;SDS011;26951;47.338;9.196;2022-10-17T06:53:36;2.72;;;1.88;;
41219;SDS011;26951;47.338;9.196;2022-10-17T06:56:21;7.30;;;2.90;;
41219;SDS011;26951;47.338;9.196;2022-10-17T06:59:07;3.75;;;1.63;;
41219;SDS011;26951;47.338;9.196;2022-10-17T07:01:52;2.00;;;1.77;;
41219;SDS011;26951;47.338;9.196;2022-10-17T07:04:36;3.00;;;2.47;;
41219;SDS011;26951;47.338;9.196;2022-10-17T07:07:20;2.28;;;1.92;;
41219;SDS011;26951;47.338;9.196;2022-10-17T07:10:05;4.10;;;3.03;;
41219;SDS011;26951;47.338;9.196;2022-10-17T07:12:52;2.65;;;2.20;;
41219;SDS011;26951;47.338;9.196;2022-10-17T07:15:37;4.00;;;2.30;;
41219;SDS011;26951;47.338;9.196;2022-10-17T07:18:21;4.47;;;2.78;;
41219;SDS011;26951;47.338;9.196;2022-10-17T07:21:05;3.38;;;2.28;;
41219;SDS011;26951;47.338;9.196;2022-10-17T07:23:51;3.88;;;2.35;;
41219;SDS011;26951;47.338;9.196;2022-10-17T07:26:35;2.10;;;1.90;;
41219;SDS011;26951;47.338;9.196;2022-10-17T07:29:19;3.65;;;2.72;;
41219;SDS011;26951;47.338;9.196;2022-10-17T07:32:03;4.55;;;2.13;;
41219;SDS011;26951;47.338;9.196;2022-10-17T07:34:51;3.33;;;2.17;;
41219;SDS011;26951;47.338;9.196;2022-10-17T07:37:35;2.00;;;1.65;;
41219;SDS011;26951;47.338;9.196;2022-10-17T07:40:19;1.50;;;1.40;;
41219;SDS011;26951;47.338;9.196;2022-10-17T07:43:04;3.15;;;1.75;;
41219;SDS011;26951;47.338;9.196;2022-10-17T07:45:48;3.30;;;1.70;;
41219;SDS011;26951;47.338;9.196;2022-10-17T07:48:31;1.40;;;1.30;;
41219;SDS011;26951;47.338;9.196;2022-10-17T07:51:15;2.92;;;1.40;;
41219;SDS011;26951;47.338;9.196;2022-10-17T07:54:01;2.47;;;2.05;;
41219;SDS011;26951;47.338;9.196;2022-10-17T07:56:47;3.97;;;1.63;;
41219;SDS011;26951;47.338;9.196;2022-10-17T07:59:33;4.68;;;1.73;;
41219;SDS011;26951;47.338;9.196;2022-10-17T08:02:25;3.33;;;1.50;;
41219;SDS011;26951;47.338;9.196;2022-10-17T08:05:10;5.75;;;1.73;;
41219;SDS011;26951;47.338;9.196;2022-10-17T08:07:54;1.73;;;1.52;;
41219;SDS011;26951;47.338;9.196;2022-10-17T08:10:38;2.38;;;1.52;;
41219;SDS011;26951;47.338;9.196;2022-10-17T08:13:23;2.75;;;1.95;;
41219;SDS011;26951;47.338;9.196;2022-10-17T08:16:09;2.05;;;1.58;;
41219;SDS011;26951;47.338;9.196;2022-10-17T08:18:54;2.45;;;1.70;;
41219;SDS011;26951;47.338;9.196;2022-10-17T08:21:38;3.63;;;1.35;;
41219;SDS011;26951;47.338;9.196;2022-10-17T08:24:24;3.42;;;1.63;;
41219;SDS011;26951;47.338;9.196;2022-10-17T08:27:08;2.30;;;1.50;;
41219;SDS011;26951;47.338;9.196;2022-10-17T08:29:54;1.48;;;1.38;;
41219;SDS011;26951;47.338;9.196;2022-10-17T08:32:38;3.90;;;1.45;;
41219;SDS011;26951;47.338;9.196;2022-10-17T08:35:22;2.00;;;1.52;;
41219;SDS011;26951;47.338;9.196;2022-10-17T08:38:06;1.75;;;1.50;;
41219;SDS011;26951;47.338;9.196;2022-10-17T08:40:50;2.20;;;1.63;;
41219;SDS011;26951;47.338;9.196;2022-10-17T08:43:44;1.80;;;1.37;;
41219;SDS011;26951;47.338;9.196;2022-10-17T08:46:42;2.95;;;1.20;;
41219;SDS011;26951;47.338;9.196;2022-10-17T08:49:40;2.42;;;1.40;;
41219;SDS011;26951;47.338;9.196;2022-10-17T08:52:38;3.92;;;1.48;;
41219;SDS011;26951;47.338;9.196;2022-10-17T08:55:40;1.80;;;1.67;;
41219;SDS011;26951;47.338;9.196;2022-10-17T08:58:28;1.50;;;1.33;;
41219;SDS011;26951;47.338;9.196;2022-10-17T09:07:43;3.78;;;1.40;;
41219;SDS011;26951;47.338;9.196;2022-10-17T09:11:23;5.20;;;1.75;;
41219;SDS011;26951;47.338;9.196;2022-10-17T09:14:38;2.40;;;1.35;;
41219;SDS011;26951;47.338;9.196;2022-10-17T09:17:50;1.48;;;1.38;;
41219;SDS011;26951;47.338;9.196;2022-10-17T09:20:37;2.25;;;1.52;;
41219;SDS011;26951;47.338;9.196;2022-10-17T09:23:29;1.52;;;1.42;;
41219;SDS011;26951;47.338;9.196;2022-10-17T09:26:16;3.38;;;1.60;;
41219;SDS011;26951;47.338;9.196;2022-10-17T09:29:01;1.50;;;1.40;;
41219;SDS011;26951;47.338;9.196;2022-10-17T09:31:47;1.50;;;1.40;;
41219;SDS011;26951;47.338;9.196;2022-10-17T09:37:47;3.17;;;1.50;;
41219;SDS011;26951;47.338;9.196;2022-10-17T09:40:33;2.40;;;1.35;;
41219;SDS011;26951;47.338;9.196;2022-10-17T09:43:18;1.73;;;1.42;;
41219;SDS011;26951;47.338;9.196;2022-10-17T09:46:11;1.42;;;1.33;;
41219;SDS011;26951;47.338;9.196;2022-10-17T09:51:57;1.98;;;1.75;;
41219;SDS011;26951;47.338;9.196;2022-10-17T09:54:44;1.52;;;1.40;;
41219;SDS011;26951;47.338;9.196;2022-10-17T09:57:54;1.75;;;1.60;;
41219;SDS011;26951;47.338;9.196;2022-10-17T10:00:41;2.05;;;1.63;;
41219;SDS011;26951;47.338;9.196;2022-10-17T10:03:27;1.95;;;1.65;;
41219;SDS011;26951;47.338;9.196;2022-10-17T10:06:20;2.47;;;1.38;;
41219;SDS011;26951;47.338;9.196;2022-10-17T10:09:05;1.50;;;1.40;;
41219;SDS011;26951;47.338;9.196;2022-10-17T10:12:02;2.47;;;1.65;;
41219;SDS011;26951;47.338;9.196;2022-10-17T10:14:57;2.08;;;1.58;;
41219;SDS011;26951;47.338;9.196;2022-10-17T10:20:28;3.33;;;1.92;;
41219;SDS011;26951;47.338;9.196;2022-10-17T10:23:19;1.83;;;1.38;;
41219;SDS011;26951;47.338;9.196;2022-10-17T10:32:37;1.75;;;1.50;;
41219;SDS011;26951;47.338;9.196;2022-10-17T10:35:21;2.88;;;1.98;;
41219;SDS011;26951;47.338;9.196;2022-10-17T10:38:14;3.22;;;1.70;;
41219;SDS011;26951;47.338;9.196;2022-10-17T10:41:01;3.25;;;1.67;;
41219;SDS011;26951;47.338;9.196;2022-10-17T10:43:48;1.55;;;1.38;;
41219;SDS011;26951;47.338;9.196;2022-10-17T10:46:34;2.40;;;1.90;;
41219;SDS011;26951;47.338;9.196;2022-10-17T10:49:28;1.80;;;1.40;;
41219;SDS011;26951;47.338;9.196;2022-10-17T10:55:09;1.98;;;1.35;;
41219;SDS011;26951;47.338;9.196;2022-10-17T11:04:49;2.33;;;1.60;;
41219;SDS011;26951;47.338;9.196;2022-10-17T11:07:43;1.55;;;1.45;;
41219;SDS011;26951;47.338;9.196;2022-10-17T11:10:34;2.97;;;1.85;;
41219;SDS011;26951;47.338;9.196;2022-10-17T11:13:25;2.70;;;1.60;;
41219;SDS011;26951;47.338;9.196;2022-10-17T11:16:19;1.90;;;1.70;;
41219;SDS011;26951;47.338;9.196;2022-10-17T11:22:30;3.03;;;1.65;;
41219;SDS011;26951;47.338;9.196;2022-10-17T11:25:33;1.95;;;1.63;;
41219;SDS011;26951;47.338;9.196;2022-10-17T11:28:20;2.20;;;2.00;;
41219;SDS011;26951;47.338;9.196;2022-10-17T11:31:11;2.90;;;1.50;;
41219;SDS011;26951;47.338;9.196;2022-10-17T11:33:57;2.33;;;1.50;;
41219;SDS011;26951;47.338;9.196;2022-10-17T11:36:47;3.67;;;1.63;;
41219;SDS011;26951;47.338;9.196;2022-10-17T11:42:40;3.17;;;1.80;;
41219;SDS011;26951;47.338;9.196;2022-10-17T11:45:45;1.95;;;1.55;;
41219;SDS011;26951;47.338;9.196;2022-10-17T11:48:40;2.72;;;1.70;;
41219;SDS011;26951;47.338;9.196;2022-10-17T11:51:29;4.00;;;1.77;;
41219;SDS011;26951;47.338;9.196;2022-10-17T12:00:33;1.83;;;1.73;;
41219;SDS011;26951;47.338;9.196;2022-10-17T12:03:48;2.70;;;1.42;;
41219;SDS011;26951;47.338;9.196;2022-10-17T12:07:12;2.38;;;1.77;;
41219;SDS011;26951;47.338;9.196;2022-10-17T12:10:06;2.88;;;1.88;;
41219;SDS011;26951;47.338;9.196;2022-10-17T12:25:02;2.58;;;2.10;;
41219;SDS011;26951;47.338;9.196;2022-10-17T12:27:47;2.00;;;1.80;;
41219;SDS011;26951;47.338;9.196;2022-10-17T12:30:33;3.75;;;1.70;;
41219;SDS011;26951;47.338;9.196;2022-10-17T12:33:21;2.10;;;1.80;;
41219;SDS011;26951;47.338;9.196;2022-10-17T12:41:51;2.30;;;1.90;;
41219;SDS011;26951;47.338;9.196;2022-10-17T12:44:35;2.45;;;1.90;;
41219;SDS011;26951;47.338;9.196;2022-10-17T12:47:27;3.13;;;2.08;;
41219;SDS011;26951;47.338;9.196;2022-10-17T12:56:30;2.55;;;2.00;;
41219;SDS011;26951;47.338;9.196;2022-10-17T12:59:21;3.17;;;2.45;;
41219;SDS011;26951;47.338;9.196;2022-10-17T13:02:08;2.30;;;2.10;;
41219;SDS011;26951;47.338;9.196;2022-10-17T13:05:06;2.10;;;1.90;;
41219;SDS011;26951;47.338;9.196;2022-10-17T13:07:56;3.45;;;2.17;;
41219;SDS011;26951;47.338;9.196;2022-10-17T13:10:44;2.22;;;2.03;;
41219;SDS011;26951;47.338;9.196;2022-10-17T13:13:43;4.55;;;2.53;;
41219;SDS011;26951;47.338;9.196;2022-10-17T13:16:37;3.75;;;2.40;;
41219;SDS011;26951;47.338;9.196;2022-10-17T13:19:28;2.55;;;2.35;;
41219;SDS011;26951;47.338;9.196;2022-10-17T13:22:28;4.40;;;2.85;;
41219;SDS011;26951;47.338;9.196;2022-10-17T13:25:15;2.90;;;2.20;;
41219;SDS011;26951;47.338;9.196;2022-10-17T13:28:02;2.42;;;2.20;;
41219;SDS011;26951;47.338;9.196;2022-10-17T13:30:50;4.30;;;2.63;;
41219;SDS011;26951;47.338;9.196;2022-10-17T13:33:36;3.38;;;2.50;;
41219;SDS011;26951;47.338;9.196;2022-10-17T13:36:25;3.72;;;2.45;;
41219;SDS011;26951;47.338;9.196;2022-10-17T13:39:12;4.43;;;2.15;;
41219;SDS011;26951;47.338;9.196;2022-10-17T13:41:57;2.75;;;2.20;;
41219;SDS011;26951;47.338;9.196;2022-10-17T13:44:42;3.03;;;2.70;;
41219;SDS011;26951;47.338;9.196;2022-10-17T13:47:28;3.88;;;2.70;;
41219;SDS011;26951;47.338;9.196;2022-10-17T13:50:18;5.57;;;3.00;;
41219;SDS011;26951;47.338;9.196;2022-10-17T13:53:11;2.80;;;2.50;;
41219;SDS011;26951;47.338;9.196;2022-10-17T13:56:22;2.67;;;2.42;;
41219;SDS011;26951;47.338;9.196;2022-10-17T13:59:16;2.85;;;2.10;;
41219;SDS011;26951;47.338;9.196;2022-10-17T14:02:12;2.58;;;2.30;;
41219;SDS011;26951;47.338;9.196;2022-10-17T14:07:55;3.50;;;2.80;;
41219;SDS011;26951;47.338;9.196;2022-10-17T14:10:42;3.92;;;2.30;;
41219;SDS011;26951;47.338;9.196;2022-10-17T14:13:30;3.20;;;2.65;;
41219;SDS011;26951;47.338;9.196;2022-10-17T14:16:18;3.47;;;2.47;;
41219;SDS011;26951;47.338;9.196;2022-10-17T14:19:04;2.90;;;2.55;;
41219;SDS011;26951;47.338;9.196;2022-10-17T14:21:52;4.68;;;2.90;;
41219;SDS011;26951;47.338;9.196;2022-10-17T14:24:37;2.70;;;2.50;;
41219;SDS011;26951;47.338;9.196;2022-10-17T14:27:30;3.30;;;2.67;;
41219;SDS011;26951;47.338;9.196;2022-10-17T14:33:17;3.47;;;2.70;;
41219;SDS011;26951;47.338;9.196;2022-10-17T14:36:06;4.93;;;2.30;;
41219;SDS011;26951;47.338;9.196;2022-10-17T14:38:50;4.10;;;2.63;;
41219;SDS011;26951;47.338;9.196;2022-10-17T14:41:35;4.15;;;2.35;;
41219;SDS011;26951;47.338;9.196;2022-10-17T14:44:29;2.75;;;2.40;;
41219;SDS011;26951;47.338;9.196;2022-10-17T14:47:20;2.53;;;2.15;;
41219;SDS011;26951;47.338;9.196;2022-10-17T14:55:56;3.90;;;2.33;;
41219;SDS011;26951;47.338;9.196;2022-10-17T14:58:42;2.92;;;2.20;;
41219;SDS011;26951;47.338;9.196;2022-10-17T15:01:26;2.85;;;2.33;;
41219;SDS011;26951;47.338;9.196;2022-10-17T15:04:10;3.73;;;2.27;;
41219;SDS011;26951;47.338;9.196;2022-10-17T15:06:54;3.22;;;2.70;;
41219;SDS011;26951;47.338;9.196;2022-10-17T15:09:39;5.63;;;2.88;;
41219;SDS011;26951;47.338;9.196;2022-10-17T15:12:24;2.30;;;2.10;;
41219;SDS011;26951;47.338;9.196;2022-10-17T15:15:08;2.72;;;2.28;;
41219;SDS011;26951;47.338;9.196;2022-10-17T15:17:53;4.68;;;2.20;;
41219;SDS011;26951;47.338;9.196;2022-10-17T15:20:37;3.97;;;2.65;;
41219;SDS011;26951;47.338;9.196;2022-10-17T15:23:22;3.33;;;2.40;;
41219;SDS011;26951;47.338;9.196;2022-10-17T15:26:17;5.07;;;2.42;;
41219;SDS011;26951;47.338;9.196;2022-10-17T15:29:03;2.85;;;2.40;;
41219;SDS011;26951;47.338;9.196;2022-10-17T15:31:47;3.33;;;3.03;;
41219;SDS011;26951;47.338;9.196;2022-10-17T15:34:31;5.32;;;3.00;;
41219;SDS011;26951;47.338;9.196;2022-10-17T15:37:17;3.03;;;2.70;;
41219;SDS011;26951;47.338;9.196;2022-10-17T15:40:05;5.25;;;2.22;;
41219;SDS011;26951;47.338;9.196;2022-10-17T15:42:50;4.63;;;2.35;;
41219;SDS011;26951;47.338;9.196;2022-10-17T15:45:34;3.00;;;2.70;;
41219;SDS011;26951;47.338;9.196;2022-10-17T15:48:20;3.60;;;2.70;;
41219;SDS011;26951;47.338;9.196;2022-10-17T15:51:12;4.80;;;2.80;;
41219;SDS011;26951;47.338;9.196;2022-10-17T15:53:56;5.13;;;2.20;;
41219;SDS011;26951;47.338;9.196;2022-10-17T15:56:44;3.33;;;2.53;;
41219;SDS011;26951;47.338;9.196;2022-10-17T15:59:34;4.30;;;2.55;;
41219;SDS011;26951;47.338;9.196;2022-10-17T16:02:19;4.18;;;2.05;;
41219;SDS011;26951;47.338;9.196;2022-10-17T16:05:08;4.30;;;2.35;;
41219;SDS011;26951;47.338;9.196;2022-10-17T16:07:58;4.82;;;2.55;;
41219;SDS011;26951;47.338;9.196;2022-10-17T16:10:42;4.25;;;3.35;;
41219;SDS011;26951;47.338;9.196;2022-10-17T16:13:26;3.45;;;3.13;;
41219;SDS011;26951;47.338;9.196;2022-10-17T16:16:11;6.72;;;3.15;;
41219;SDS011;26951;47.338;9.196;2022-10-17T16:18:54;5.20;;;3.63;;
41219;SDS011;26951;47.338;9.196;2022-10-17T16:21:39;4.28;;;3.88;;
41219;SDS011;26951;47.338;9.196;2022-10-17T16:24:23;4.55;;;3.58;;
41219;SDS011;26951;47.338;9.196;2022-10-17T16:27:08;3.78;;;3.38;;
41219;SDS011;26951;47.338;9.196;2022-10-17T16:29:52;6.70;;;4.07;;
41219;SDS011;26951;47.338;9.196;2022-10-17T16:32:36;4.15;;;3.30;;
41219;SDS011;26951;47.338;9.196;2022-10-17T16:35:22;4.07;;;3.67;;
41219;SDS011;26951;47.338;9.196;2022-10-17T16:38:07;3.78;;;2.88;;
41219;SDS011;26951;47.338;9.196;2022-10-17T16:40:51;4.25;;;3.75;;
41219;SDS011;26951;47.338;9.196;2022-10-17T16:43:36;6.13;;;3.50;;
41219;SDS011;26951;47.338;9.196;2022-10-17T16:46:20;5.72;;;3.63;;
41219;SDS011;26951;47.338;9.196;2022-10-17T16:49:05;4.82;;;4.25;;
41219;SDS011;26951;47.338;9.196;2022-10-17T16:51:50;4.93;;;3.75;;
41219;SDS011;26951;47.338;9.196;2022-10-17T16:54:34;4.85;;;4.25;;
41219;SDS011;26951;47.338;9.196;2022-10-17T16:57:18;5.50;;;4.82;;
41219;SDS011;26951;47.338;9.196;2022-10-17T17:00:03;5.40;;;4.18;;
41219;SDS011;26951;47.338;9.196;2022-10-17T17:02:49;5.15;;;3.50;;
41219;SDS011;26951;47.338;9.196;2022-10-17T17:05:33;5.05;;;3.70;;
41219;SDS011;26951;47.338;9.196;2022-10-17T17:08:17;5.07;;;3.72;;
41219;SDS011;26951;47.338;9.196;2022-10-17T17:11:01;4.45;;;3.10;;
41219;SDS011;26951;47.338;9.196;2022-10-17T17:13:45;4.88;;;3.85;;
41219;SDS011;26951;47.338;9.196;2022-10-17T17:16:30;4.15;;;3.22;;
41219;SDS011;26951;47.338;9.196;2022-10-17T17:19:16;5.68;;;3.97;;
41219;SDS011;26951;47.338;9.196;2022-10-17T17:22:00;4.47;;;4.05;;
41219;SDS011;26951;47.338;9.196;2022-10-17T17:24:44;4.72;;;4.28;;
41219;SDS011;26951;47.338;9.196;2022-10-17T17:27:28;6.63;;;3.53;;
41219;SDS011;26951;47.338;9.196;2022-10-17T17:30:12;8.10;;;3.47;;
41219;SDS011;26951;47.338;9.196;2022-10-17T17:32:57;4.47;;;3.20;;
41219;SDS011;26951;47.338;9.196;2022-10-17T17:38:30;5.40;;;3.88;;
41219;SDS011;26951;47.338;9.196;2022-10-17T17:41:17;8.13;;;3.95;;
41219;SDS011;26951;47.338;9.196;2022-10-17T17:44:03;5.75;;;4.30;;
41219;SDS011;26951;47.338;9.196;2022-10-17T17:46:47;5.05;;;4.10;;
41219;SDS011;26951;47.338;9.196;2022-10-17T17:49:31;7.25;;;5.25;;
41219;SDS011;26951;47.338;9.196;2022-10-17T17:52:16;5.38;;;4.72;;
41219;SDS011;26951;47.338;9.196;2022-10-17T17:55:00;6.25;;;4.53;;
41219;SDS011;26951;47.338;9.196;2022-10-17T17:57:44;6.28;;;4.10;;
41219;SDS011;26951;47.338;9.196;2022-10-17T18:00:28;5.07;;;4.00;;
41219;SDS011;26951;47.338;9.196;2022-10-17T18:03:13;6.57;;;4.57;;
41219;SDS011;26951;47.338;9.196;2022-10-17T18:05:57;6.07;;;4.82;;
41219;SDS011;26951;47.338;9.196;2022-10-17T18:08:45;6.45;;;4.45;;
41219;SDS011;26951;47.338;9.196;2022-10-17T18:11:31;6.55;;;4.50;;
41219;SDS011;26951;47.338;9.196;2022-10-17T18:14:16;7.32;;;4.85;;
41219;SDS011;26951;47.338;9.196;2022-10-17T18:17:01;6.47;;;4.30;;
41219;SDS011;26951;47.338;9.196;2022-10-17T18:19:45;6.35;;;4.50;;
41219;SDS011;26951;47.338;9.196;2022-10-17T18:22:30;7.25;;;3.90;;
41219;SDS011;26951;47.338;9.196;2022-10-17T18:25:14;5.63;;;3.45;;
41219;SDS011;26951;47.338;9.196;2022-10-17T18:27:58;6.18;;;3.90;;
41219;SDS011;26951;47.338;9.196;2022-10-17T18:30:42;5.57;;;4.93;;
41219;SDS011;26951;47.338;9.196;2022-10-17T18:33:26;5.32;;;3.50;;